KRWI/RWI METAR and TAF weather

Enter ICAO airport designator
Station Type Date Time Source
KRWI METAR 2020/07/07 23:53 UTC NOAA

KRWI 072353Z AUTO 00000KT 10SM CLR 24/23 A3001 RMK AO2 SLP162 60009 T02440228 10311 20244 55008


Station Type Date Time Source
KRWI Decoded METAR 2020/07/07 23:53 UTC NOAA

ROCKY MOUNT-WILSON AIRPORT, NC, United States (KRWI) 35-51N 077-54W 47M
Jul 07, 2020 - 07:53 PM EDT / 2020.07.07 2353 UTC
Wind: Calm:0
Visibility: 10 mile(s):0
Sky conditions: clear
Temperature: 75.9 F (24.4 C)
Dew Point: 73.0 F (22.8 C)
Relative Humidity: 90%
Pressure (altimeter): 30.01 in. Hg (1016 hPa)
Pressure tendency: 0.02 inches (0.8 hPa) lower than three hours ago
ob: KRWI 072353Z AUTO 00000KT 10SM CLR 24/23 A3001 RMK AO2 SLP162 60009 T02440228 10311 20244 55008
cycle: 0

Station Type Date Time Source
KRWI TAF 2020/07/07 21:48 UTC NOAA

TAF
AMD KRWI 072047Z 0721/0818 VRB06KT P6SM VCSH SCT035 BKN150
FM080900 VRB03KT 4SM BR BKN012
FM081300 VRB03KT P6SM SCT020 BKN050

Example: see airport list